Transporter — EAJI — position and weather

sailwx.info

Track history (hours):
 
Tides and Currents Weather Stations Pressure Air Temp Water Temp Dewpoint Dewpoint Depression Visibility Wind Speed Wind Dir Waves Ship Positions

Transporter

Last reported at 2018-Jul-21 11:00 UTC. Time now 2018-Jul-21 11:21 UTC.
Position N 36°08' W 005°26'.

Length 122 m; draft 5.8 m.

Type: Ship. MMSI: 225456000.

Date/timePositionNaut miles runAvg speedWind from/ knotsBaromVisibWave heightAir tempDewpointWater temp
2018-Jul-21 11:00N 36°08' W 005°26'0 0.0
2018-Jul-21 10:28N 36°08' W 005°26'0 0.0
2018-Jul-21 09:58N 36°08' W 005°26'0 0.0
2018-Jul-21 09:30N 36°08' W 005°26'0 0.0
2018-Jul-21 08:58N 36°08' W 005°26'0 0.0
2018-Jul-21 08:28N 36°08' W 005°26'0 0.0
2018-Jul-21 07:58N 36°08' W 005°26'0 0.0
2018-Jul-21 07:28N 36°08' W 005°26'0 0.0
2018-Jul-21 06:04N 36°08' W 005°26'0 0.0
2018-Jul-21 06:00N 36°08' W 005°26'0 0.0
2018-Jul-21 05:28N 36°08' W 005°26'0 0.0
2018-Jul-21 04:58N 36°08' W 005°26'0 0.0
2018-Jul-21 04:28N 36°08' W 005°26'0 0.0
2018-Jul-21 03:58N 36°08' W 005°26'0 0.0
2018-Jul-21 03:28N 36°08' W 005°26'0 0.0
2018-Jul-21 02:58N 36°08' W 005°26'0 0.0
2018-Jul-21 02:28N 36°08' W 005°26'0 0.0
2018-Jul-21 01:55N 36°08' W 005°26'0 0.0
2018-Jul-21 01:25N 36°08' W 005°26'0 0.0
2018-Jul-21 00:55N 36°08' W 005°26'0 0.0
2018-Jul-21 00:28N 36°08' W 005°26'0 0.0
2018-Jul-20 23:58N 36°08' W 005°26'0 0.0
2018-Jul-20 23:28N 36°08' W 005°26'0 0.0
2018-Jul-20 22:58N 36°08' W 005°26'0 0.0
2018-Jul-20 22:28N 36°08' W 005°26'0 0.0
2018-Jul-20 21:58N 36°08' W 005°26'0 0.0
2018-Jul-20 21:28N 36°08' W 005°26'0 0.0
2018-Jul-20 20:58N 36°08' W 005°26'0 0.0
2018-Jul-20 20:28N 36°08' W 005°26'0 0.0
2018-Jul-20 20:00N 36°08' W 005°26'2 4.1
2018-Jul-20 19:30N 36°07' W 005°23'713.6
2018-Jul-20 19:01N 36°01' W 005°20'713.7
2018-Jul-20 18:30N 35°54' W 005°19'1 1.8
2018-Jul-20 18:00N 35°54' W 005°19'0 0.0
2018-Jul-20 17:30N 35°54' W 005°19'0 0.0
2018-Jul-20 17:00N 35°54' W 005°19'0 0.0
2018-Jul-20 16:30N 35°54' W 005°19'0 0.0
2018-Jul-20 16:00N 35°54' W 005°19'0 0.0
2018-Jul-20 15:30N 35°54' W 005°19'0 0.0
2018-Jul-20 15:00N 35°54' W 005°19'0 0.0
2018-Jul-20 14:30N 35°54' W 005°19'0 0.0
2018-Jul-20 14:00N 35°54' W 005°19'  
2018-Jul-18 05:43N 36°08' W 005°26'0 0.0
2018-Jul-18 05:26N 36°08' W 005°26'0 0.0
2018-Jul-18 04:50N 36°08' W 005°26'0 0.0
2018-Jul-18 04:25N 36°08' W 005°26'0 0.0
2018-Jul-18 03:50N 36°08' W 005°26'0 0.0
2018-Jul-18 03:26N 36°08' W 005°26'0 0.0
2018-Jul-18 02:57N 36°08' W 005°26'0 0.0
2018-Jul-18 02:26N 36°08' W 005°26'0 0.0
2018-Jul-18 01:56N 36°08' W 005°26'0 0.0
2018-Jul-18 01:27N 36°08' W 005°26'0 0.0
2018-Jul-18 00:58N 36°08' W 005°26'0 0.0
2018-Jul-18 00:28N 36°08' W 005°26'0 0.0
2018-Jul-17 23:56N 36°08' W 005°26'0 0.0
2018-Jul-17 23:27N 36°08' W 005°26'0 0.0
2018-Jul-17 22:57N 36°08' W 005°26'0 0.0
2018-Jul-17 22:29N 36°08' W 005°26'0 0.0
2018-Jul-17 21:59N 36°08' W 005°26'0 0.0
2018-Jul-17 21:29N 36°08' W 005°26'0 0.0
2018-Jul-17 20:59N 36°08' W 005°26'0 0.0
2018-Jul-17 20:26N 36°08' W 005°26'0 0.0
2018-Jul-17 20:00N 36°08' W 005°26'0 0.0
2018-Jul-17 19:26N 36°08' W 005°26'1 2.0
2018-Jul-17 19:00N 36°09' W 005°26'713.4
2018-Jul-17 18:31N 36°03' W 005°22'713.4
2018-Jul-17 18:00N 35°57' W 005°19'3 5.3
2018-Jul-17 17:30N 35°54' W 005°19'0 0.0
2018-Jul-17 17:00N 35°54' W 005°19'0 0.0
2018-Jul-17 16:30N 35°54' W 005°19'0 0.0
2018-Jul-17 16:00N 35°54' W 005°19'0 0.0
2018-Jul-17 15:26N 35°54' W 005°19'0 0.0
2018-Jul-17 15:00N 35°54' W 005°19'0 0.0
2018-Jul-17 14:26N 35°54' W 005°19'0 0.0
2018-Jul-17 13:59N 35°54' W 005°19'1 1.9
2018-Jul-17 13:30N 35°54' W 005°19'4 7.4
2018-Jul-17 13:00N 35°58' W 005°20'714.5
2018-Jul-17 12:30N 36°05' W 005°23'4 7.9
2018-Jul-17 12:00N 36°08' W 005°26'0 0.0
2018-Jul-17 09:56N 36°08' W 005°26'0 0.0
2018-Jul-17 09:20N 36°08' W 005°26'0 0.0
2018-Jul-17 08:56N 36°08' W 005°26'0 0.0
2018-Jul-17 05:47N 36°08' W 005°26'0 0.0
2018-Jul-17 05:23N 36°08' W 005°26'0 0.0
2018-Jul-17 04:56N 36°08' W 005°26'0 0.0
2018-Jul-17 04:29N 36°08' W 005°26'0 0.0
2018-Jul-17 03:59N 36°08' W 005°26'0 0.0
2018-Jul-17 03:26N 36°08' W 005°26'0 0.0
2018-Jul-17 02:56N 36°08' W 005°26'0 0.0
2018-Jul-17 02:29N 36°08' W 005°26'0 0.0
2018-Jul-17 01:59N 36°08' W 005°26'0 0.0
2018-Jul-17 01:26N 36°08' W 005°26'0 0.0
2018-Jul-17 00:56N 36°08' W 005°26'0 0.0
2018-Jul-17 00:26N 36°08' W 005°26'0 0.0
2018-Jul-16 23:26N 36°08' W 005°26'0 0.0
2018-Jul-16 22:59N 36°08' W 005°26'0 0.0
2018-Jul-16 22:26N 36°08' W 005°26'0 0.0
2018-Jul-16 21:56N 36°08' W 005°26'0 0.0
2018-Jul-16 21:29N 36°08' W 005°26'0 0.0
2018-Jul-16 20:59N 36°08' W 005°26'0 0.0
2018-Jul-16 20:29N 36°08' W 005°26'0 0.0
2018-Jul-16 19:59N 36°08' W 005°26'0 0.0
2018-Jul-16 19:30N 36°08' W 005°26'2 4.5
2018-Jul-16 19:00N 36°07' W 005°23'714.3
2018-Jul-16 18:30N 36°00' W 005°21'612.9
2018-Jul-16 18:00N 35°54' W 005°18'1 1.3
2018-Jul-16 17:23N 35°54' W 005°19'0 0.0
2018-Jul-16 17:00N 35°54' W 005°19'0 0.0
2018-Jul-16 16:29N 35°54' W 005°19'0 0.0
2018-Jul-16 15:59N 35°54' W 005°19'0 0.0
2018-Jul-16 15:29N 35°54' W 005°19'0 0.0
2018-Jul-16 14:59N 35°54' W 005°19'0 0.0
2018-Jul-16 14:29N 35°54' W 005°19'0 0.0
2018-Jul-16 13:59N 35°54' W 005°19'0 0.0
2018-Jul-16 13:29N 35°54' W 005°19'0 0.1
2018-Jul-16 13:00N 35°54' W 005°19'4 8.2
2018-Jul-16 12:30N 35°58' W 005°19'815.1
2018-Jul-16 12:00N 36°05' W 005°23'4 0.8
2018-Jul-16 06:40N 36°08' W 005°26'0 0.0
2018-Jul-16 06:28N 36°08' W 005°26'0 0.0
2018-Jul-16 05:58N 36°08' W 005°26'0 0.0
2018-Jul-16 04:16N 36°08' W 005°26'0 0.0
2018-Jul-16 03:58N 36°08' W 005°26'0 0.0
2018-Jul-16 03:28N 36°08' W 005°26'0 0.0
2018-Jul-16 02:58N 36°08' W 005°26'0 0.0
2018-Jul-16 02:16N 36°08' W 005°26'0 0.0
2018-Jul-16 01:58N 36°08' W 005°26'0 0.0
2018-Jul-16 01:28N 36°08' W 005°26'0 0.0
2018-Jul-16 00:58N 36°08' W 005°26'0 0.0
2018-Jul-16 00:28N 36°08' W 005°26'0 0.0
2018-Jul-15 23:58N 36°08' W 005°26'0 0.0
2018-Jul-15 23:28N 36°08' W 005°26'0 0.0
2018-Jul-15 23:00N 36°08' W 005°26'0 0.0
2018-Jul-15 21:58N 36°08' W 005°26'0 0.0
2018-Jul-15 21:30N 36°08' W 005°26'0 0.0
2018-Jul-15 20:52N 36°08' W 005°26'0 0.0
2018-Jul-15 17:04N 36°08' W 005°26'0 0.0
2018-Jul-15 16:58N 36°08' W 005°26'0 0.0
2018-Jul-15 16:28N 36°08' W 005°26'0 0.0
2018-Jul-15 16:00N 36°08' W 005°26'0 0.0
2018-Jul-15 15:30N 36°08' W 005°26'0 0.0
2018-Jul-15 15:00N 36°08' W 005°26'0 0.0
2018-Jul-15 13:28N 36°08' W 005°26'0 0.0
2018-Jul-15 13:00N 36°08' W 005°26'0 0.0
2018-Jul-15 12:28N 36°08' W 005°26'0 0.0
2018-Jul-15 09:40N 36°08' W 005°26'0 0.0
2018-Jul-15 09:30N 36°08' W 005°26'0 0.0
2018-Jul-15 08:58N 36°08' W 005°26'0 0.0
2018-Jul-15 08:22N 36°08' W 005°26'0 0.0
2018-Jul-15 07:58N 36°08' W 005°26'0 0.0
2018-Jul-15 07:28N 36°08' W 005°26'0 0.0
2018-Jul-15 06:58N 36°08' W 005°26'0 0.0
2018-Jul-15 06:22N 36°08' W 005°26'0 0.0
2018-Jul-15 05:52N 36°08' W 005°26'0 0.0
2018-Jul-15 05:22N 36°08' W 005°26'0 0.0
2018-Jul-15 04:58N 36°08' W 005°26'0 0.0
2018-Jul-15 04:28N 36°08' W 005°26'0 0.0
2018-Jul-15 03:58N 36°08' W 005°26'0 0.0
2018-Jul-15 03:22N 36°08' W 005°26'0 0.0
2018-Jul-15 02:37N 36°08' W 005°26'0 0.0
2018-Jul-15 02:28N 36°08' W 005°26'0 0.0
2018-Jul-15 01:58N 36°08' W 005°26'0 0.0
2018-Jul-15 01:28N 36°08' W 005°26'0 0.0
2018-Jul-15 00:58N 36°08' W 005°26'0 0.0
2018-Jul-15 00:28N 36°08' W 005°26'0 0.0
2018-Jul-14 23:58N 36°08' W 005°26'0 0.0
2018-Jul-14 23:28N 36°08' W 005°26'0 0.0
2018-Jul-14 22:52N 36°08' W 005°26'0 0.0
2018-Jul-14 20:22N 36°08' W 005°26'0 0.0
2018-Jul-14 19:58N 36°08' W 005°26'0 0.0
2018-Jul-14 19:28N 36°08' W 005°26'0 0.0
2018-Jul-14 18:58N 36°08' W 005°26'0 0.0
2018-Jul-14 18:28N 36°08' W 005°26'0 0.0
2018-Jul-14 17:58N 36°08' W 005°26'0 0.0
2018-Jul-14 17:22N 36°08' W 005°26'0 0.0
2018-Jul-14 16:55N 36°08' W 005°26'0 0.0
2018-Jul-14 16:29N 36°08' W 005°26'0 0.0
2018-Jul-14 15:55N 36°08' W 005°26'0 0.0
2018-Jul-14 15:29N 36°08' W 005°26'0 0.0
2018-Jul-14 14:55N 36°08' W 005°26'0 0.0
2018-Jul-14 14:29N 36°08' W 005°26'0 0.0
2018-Jul-14 13:29N 36°08' W 005°26'0 0.0
2018-Jul-14 12:59N 36°08' W 005°26'0 0.0
2018-Jul-14 09:59N 36°08' W 005°26'0 0.0
2018-Jul-14 09:29N 36°08' W 005°26'0 0.0
2018-Jul-14 08:59N 36°08' W 005°26'0 0.0
2018-Jul-14 06:23N 36°08' W 005°26'0 0.0
2018-Jul-14 05:59N 36°08' W 005°26'0 0.0
2018-Jul-14 05:29N 36°08' W 005°26'0 0.0
2018-Jul-14 04:59N 36°08' W 005°26'0 0.0
2018-Jul-14 04:29N 36°08' W 005°26'0 0.0
2018-Jul-14 03:59N 36°08' W 005°26'0 0.0
2018-Jul-14 03:29N 36°08' W 005°26'0 0.0
2018-Jul-14 02:59N 36°08' W 005°26'0 0.0
2018-Jul-14 02:29N 36°08' W 005°26'0 0.0
2018-Jul-14 01:59N 36°08' W 005°26'0 0.0
2018-Jul-14 01:14N 36°08' W 005°26'0 0.0
2018-Jul-14 00:53N 36°08' W 005°26'0 0.0
2018-Jul-14 00:29N 36°08' W 005°26'0 0.0
2018-Jul-13 23:47N 36°08' W 005°26'0 0.0
2018-Jul-13 23:29N 36°08' W 005°26'0 0.0
2018-Jul-13 18:26N 36°08' W 005°26'0 0.0
2018-Jul-13 17:59N 36°08' W 005°26'0 0.0
2018-Jul-13 17:29N 36°08' W 005°26'0 0.0
2018-Jul-13 16:44N 36°08' W 005°26'1 3.5
2018-Jul-13 16:23N 36°09' W 005°25'614.7
2018-Jul-13 16:00N 36°04' W 005°21'713.8
2018-Jul-13 15:31N 35°57' W 005°19'3 6.9
2018-Jul-13 15:00N 35°54' W 005°19'0 0.0
2018-Jul-13 13:59N 35°54' W 005°19'0 0.0
2018-Jul-13 13:29N 35°54' W 005°19'0 0.0
2018-Jul-13 12:59N 35°54' W 005°19'0 0.0
2018-Jul-13 12:29N 35°54' W 005°19'0 0.1
2018-Jul-13 12:00N 35°54' W 005°19'4 7.9
2018-Jul-13 11:31N 35°58' W 005°20'11 0.8
2018-Jul-12 21:29N 36°08' W 005°26'0 0.0
2018-Jul-12 20:59N 36°08' W 005°26'0 0.0
2018-Jul-12 20:29N 36°08' W 005°26'0 0.0
2018-Jul-12 20:01N 36°08' W 005°26'2 4.3
2018-Jul-12 19:30N 36°07' W 005°24'612.9
2018-Jul-12 19:00N 36°01' W 005°19'713.6
2018-Jul-12 18:31N 35°55' W 005°19'1 1.9
2018-Jul-12 18:00N 35°54' W 005°19'0 0.0
2018-Jul-12 17:30N 35°54' W 005°19'0 0.0
2018-Jul-12 17:00N 35°54' W 005°19'0 0.0
2018-Jul-12 16:30N 35°54' W 005°19'0 0.0
2018-Jul-12 16:00N 35°54' W 005°19'0 0.0
2018-Jul-12 15:30N 35°54' W 005°19'0 0.0
2018-Jul-12 15:00N 35°54' W 005°19'0 0.0
2018-Jul-12 14:30N 35°54' W 005°19'0 0.0
2018-Jul-12 14:00N 35°54' W 005°19'0 0.3
2018-Jul-12 13:30N 35°54' W 005°19'4 8.7
2018-Jul-12 13:00N 35°58' W 005°20'1214.2
2018-Jul-12 12:11N 36°09' W 005°25'1 5.9
2018-Jul-12 12:01N 36°08' W 005°26'0 0.0
2018-Jul-12 11:30N 36°08' W 005°26'0 0.0
2018-Jul-12 10:54N 36°08' W 005°26'0 0.0
2018-Jul-12 10:25N 36°08' W 005°26'15 1.0
2018-Jul-11 18:32N 35°54' W 005°19'0 0.0
2018-Jul-11 18:30N 35°54' W 005°19'0 0.0
2018-Jul-11 18:00N 35°54' W 005°19'0 0.0
2018-Jul-11 17:30N 35°54' W 005°19'0 0.0
2018-Jul-11 17:00N 35°54' W 005°19'0 0.0
2018-Jul-11 16:30N 35°54' W 005°19'0 0.0
2018-Jul-11 16:00N 35°54' W 005°19'0 0.0
2018-Jul-11 15:30N 35°54' W 005°19'0 0.0
2018-Jul-11 15:00N 35°54' W 005°19'0 0.8
2018-Jul-11 14:30N 35°54' W 005°19'1 2.1
2018-Jul-11 14:00N 35°55' W 005°19'0 0.1
2018-Jul-11 13:30N 35°55' W 005°19'713.6
2018-Jul-11 13:00N 36°01' W 005°21'810.1
2018-Jul-11 12:14N 36°08' W 005°26'  
Track history (hours):
 
Tides and Currents Weather Stations Pressure Air Temp Water Temp Dewpoint Dewpoint Depression Visibility Wind Speed Wind Dir Waves Ship Positions

Transporter

Last reported at 2018-Jul-21 11:00 UTC. Time now 2018-Jul-21 11:21 UTC.
Position N 36°08' W 005°26'.

Length 122 m; draft 5.8 m.

Type: Ship. MMSI: 225456000.

Date/timePositionNaut miles runAvg speedWind from/ knotsBaromVisibWave heightAir tempDewpointWater temp
2018-Jul-21 11:00N 36°08' W 005°26'0 0.0
2018-Jul-21 10:28N 36°08' W 005°26'0 0.0
2018-Jul-21 09:58N 36°08' W 005°26'0 0.0
2018-Jul-21 09:30N 36°08' W 005°26'0 0.0
2018-Jul-21 08:58N 36°08' W 005°26'0 0.0
2018-Jul-21 08:28N 36°08' W 005°26'0 0.0
2018-Jul-21 07:58N 36°08' W 005°26'0 0.0
2018-Jul-21 07:28N 36°08' W 005°26'0 0.0
2018-Jul-21 06:04N 36°08' W 005°26'0 0.0
2018-Jul-21 06:00N 36°08' W 005°26'0 0.0
2018-Jul-21 05:28N 36°08' W 005°26'0 0.0
2018-Jul-21 04:58N 36°08' W 005°26'0 0.0
2018-Jul-21 04:28N 36°08' W 005°26'0 0.0
2018-Jul-21 03:58N 36°08' W 005°26'0 0.0
2018-Jul-21 03:28N 36°08' W 005°26'0 0.0
2018-Jul-21 02:58N 36°08' W 005°26'0 0.0
2018-Jul-21 02:28N 36°08' W 005°26'0 0.0
2018-Jul-21 01:55N 36°08' W 005°26'0 0.0
2018-Jul-21 01:25N 36°08' W 005°26'0 0.0
2018-Jul-21 00:55N 36°08' W 005°26'0 0.0
2018-Jul-21 00:28N 36°08' W 005°26'0 0.0
2018-Jul-20 23:58N 36°08' W 005°26'0 0.0
2018-Jul-20 23:28N 36°08' W 005°26'0 0.0
2018-Jul-20 22:58N 36°08' W 005°26'0 0.0
2018-Jul-20 22:28N 36°08' W 005°26'0 0.0
2018-Jul-20 21:58N 36°08' W 005°26'0 0.0
2018-Jul-20 21:28N 36°08' W 005°26'0 0.0
2018-Jul-20 20:58N 36°08' W 005°26'0 0.0
2018-Jul-20 20:28N 36°08' W 005°26'0 0.0
2018-Jul-20 20:00N 36°08' W 005°26'2 4.1
2018-Jul-20 19:30N 36°07' W 005°23'713.6
2018-Jul-20 19:01N 36°01' W 005°20'713.7
2018-Jul-20 18:30N 35°54' W 005°19'1 1.8
2018-Jul-20 18:00N 35°54' W 005°19'0 0.0
2018-Jul-20 17:30N 35°54' W 005°19'0 0.0
2018-Jul-20 17:00N 35°54' W 005°19'0 0.0
2018-Jul-20 16:30N 35°54' W 005°19'0 0.0
2018-Jul-20 16:00N 35°54' W 005°19'0 0.0
2018-Jul-20 15:30N 35°54' W 005°19'0 0.0
2018-Jul-20 15:00N 35°54' W 005°19'0 0.0
2018-Jul-20 14:30N 35°54' W 005°19'0 0.0
2018-Jul-20 14:00N 35°54' W 005°19'  
2018-Jul-18 05:43N 36°08' W 005°26'0 0.0
2018-Jul-18 05:26N 36°08' W 005°26'0 0.0
2018-Jul-18 04:50N 36°08' W 005°26'0 0.0
2018-Jul-18 04:25N 36°08' W 005°26'0 0.0
2018-Jul-18 03:50N 36°08' W 005°26'0 0.0
2018-Jul-18 03:26N 36°08' W 005°26'0 0.0
2018-Jul-18 02:57N 36°08' W 005°26'0 0.0
2018-Jul-18 02:26N 36°08' W 005°26'0 0.0
2018-Jul-18 01:56N 36°08' W 005°26'0 0.0
2018-Jul-18 01:27N 36°08' W 005°26'0 0.0
2018-Jul-18 00:58N 36°08' W 005°26'0 0.0
2018-Jul-18 00:28N 36°08' W 005°26'0 0.0
2018-Jul-17 23:56N 36°08' W 005°26'0 0.0
2018-Jul-17 23:27N 36°08' W 005°26'0 0.0
2018-Jul-17 22:57N 36°08' W 005°26'0 0.0
2018-Jul-17 22:29N 36°08' W 005°26'0 0.0
2018-Jul-17 21:59N 36°08' W 005°26'0 0.0
2018-Jul-17 21:29N 36°08' W 005°26'0 0.0
2018-Jul-17 20:59N 36°08' W 005°26'0 0.0
2018-Jul-17 20:26N 36°08' W 005°26'0 0.0
2018-Jul-17 20:00N 36°08' W 005°26'0 0.0
2018-Jul-17 19:26N 36°08' W 005°26'1 2.0
2018-Jul-17 19:00N 36°09' W 005°26'713.4
2018-Jul-17 18:31N 36°03' W 005°22'713.4
2018-Jul-17 18:00N 35°57' W 005°19'3 5.3
2018-Jul-17 17:30N 35°54' W 005°19'0 0.0
2018-Jul-17 17:00N 35°54' W 005°19'0 0.0
2018-Jul-17 16:30N 35°54' W 005°19'0 0.0
2018-Jul-17 16:00N 35°54' W 005°19'0 0.0
2018-Jul-17 15:26N 35°54' W 005°19'0 0.0
2018-Jul-17 15:00N 35°54' W 005°19'0 0.0
2018-Jul-17 14:26N 35°54' W 005°19'0 0.0
2018-Jul-17 13:59N 35°54' W 005°19'1 1.9
2018-Jul-17 13:30N 35°54' W 005°19'4 7.4
2018-Jul-17 13:00N 35°58' W 005°20'714.5
2018-Jul-17 12:30N 36°05' W 005°23'4 7.9
2018-Jul-17 12:00N 36°08' W 005°26'0 0.0
2018-Jul-17 09:56N 36°08' W 005°26'0 0.0
2018-Jul-17 09:20N 36°08' W 005°26'0 0.0
2018-Jul-17 08:56N 36°08' W 005°26'0 0.0
2018-Jul-17 05:47N 36°08' W 005°26'0 0.0
2018-Jul-17 05:23N 36°08' W 005°26'0 0.0
2018-Jul-17 04:56N 36°08' W 005°26'0 0.0
2018-Jul-17 04:29N 36°08' W 005°26'0 0.0
2018-Jul-17 03:59N 36°08' W 005°26'0 0.0
2018-Jul-17 03:26N 36°08' W 005°26'0 0.0
2018-Jul-17 02:56N 36°08' W 005°26'0 0.0
2018-Jul-17 02:29N 36°08' W 005°26'0 0.0
2018-Jul-17 01:59N 36°08' W 005°26'0 0.0
2018-Jul-17 01:26N 36°08' W 005°26'0 0.0
2018-Jul-17 00:56N 36°08' W 005°26'0 0.0
2018-Jul-17 00:26N 36°08' W 005°26'0 0.0
2018-Jul-16 23:26N 36°08' W 005°26'0 0.0
2018-Jul-16 22:59N 36°08' W 005°26'0 0.0
2018-Jul-16 22:26N 36°08' W 005°26'0 0.0
2018-Jul-16 21:56N 36°08' W 005°26'0 0.0
2018-Jul-16 21:29N 36°08' W 005°26'0 0.0
2018-Jul-16 20:59N 36°08' W 005°26'0 0.0
2018-Jul-16 20:29N 36°08' W 005°26'0 0.0
2018-Jul-16 19:59N 36°08' W 005°26'0 0.0
2018-Jul-16 19:30N 36°08' W 005°26'2 4.5
2018-Jul-16 19:00N 36°07' W 005°23'714.3
2018-Jul-16 18:30N 36°00' W 005°21'612.9
2018-Jul-16 18:00N 35°54' W 005°18'1 1.3
2018-Jul-16 17:23N 35°54' W 005°19'0 0.0
2018-Jul-16 17:00N 35°54' W 005°19'0 0.0
2018-Jul-16 16:29N 35°54' W 005°19'0 0.0
2018-Jul-16 15:59N 35°54' W 005°19'0 0.0
2018-Jul-16 15:29N 35°54' W 005°19'0 0.0
2018-Jul-16 14:59N 35°54' W 005°19'0 0.0
2018-Jul-16 14:29N 35°54' W 005°19'0 0.0
2018-Jul-16 13:59N 35°54' W 005°19'0 0.0
2018-Jul-16 13:29N 35°54' W 005°19'0 0.1
2018-Jul-16 13:00N 35°54' W 005°19'4 8.2
2018-Jul-16 12:30N 35°58' W 005°19'815.1
2018-Jul-16 12:00N 36°05' W 005°23'4 0.8
2018-Jul-16 06:40N 36°08' W 005°26'0 0.0
2018-Jul-16 06:28N 36°08' W 005°26'0 0.0
2018-Jul-16 05:58N 36°08' W 005°26'0 0.0
2018-Jul-16 04:16N 36°08' W 005°26'0 0.0
2018-Jul-16 03:58N 36°08' W 005°26'0 0.0
2018-Jul-16 03:28N 36°08' W 005°26'0 0.0
2018-Jul-16 02:58N 36°08' W 005°26'0 0.0
2018-Jul-16 02:16N 36°08' W 005°26'0 0.0
2018-Jul-16 01:58N 36°08' W 005°26'0 0.0
2018-Jul-16 01:28N 36°08' W 005°26'0 0.0
2018-Jul-16 00:58N 36°08' W 005°26'0 0.0
2018-Jul-16 00:28N 36°08' W 005°26'0 0.0
2018-Jul-15 23:58N 36°08' W 005°26'0 0.0
2018-Jul-15 23:28N 36°08' W 005°26'0 0.0
2018-Jul-15 23:00N 36°08' W 005°26'0 0.0
2018-Jul-15 21:58N 36°08' W 005°26'0 0.0
2018-Jul-15 21:30N 36°08' W 005°26'0 0.0
2018-Jul-15 20:52N 36°08' W 005°26'0 0.0
2018-Jul-15 17:04N 36°08' W 005°26'0 0.0
2018-Jul-15 16:58N 36°08' W 005°26'0 0.0
2018-Jul-15 16:28N 36°08' W 005°26'0 0.0
2018-Jul-15 16:00N 36°08' W 005°26'0 0.0
2018-Jul-15 15:30N 36°08' W 005°26'0 0.0
2018-Jul-15 15:00N 36°08' W 005°26'0 0.0
2018-Jul-15 13:28N 36°08' W 005°26'0 0.0
2018-Jul-15 13:00N 36°08' W 005°26'0 0.0
2018-Jul-15 12:28N 36°08' W 005°26'0 0.0
2018-Jul-15 09:40N 36°08' W 005°26'0 0.0
2018-Jul-15 09:30N 36°08' W 005°26'0 0.0
2018-Jul-15 08:58N 36°08' W 005°26'0 0.0
2018-Jul-15 08:22N 36°08' W 005°26'0 0.0
2018-Jul-15 07:58N 36°08' W 005°26'0 0.0
2018-Jul-15 07:28N 36°08' W 005°26'0 0.0
2018-Jul-15 06:58N 36°08' W 005°26'0 0.0
2018-Jul-15 06:22N 36°08' W 005°26'0 0.0
2018-Jul-15 05:52N 36°08' W 005°26'0 0.0
2018-Jul-15 05:22N 36°08' W 005°26'0 0.0
2018-Jul-15 04:58N 36°08' W 005°26'0 0.0
2018-Jul-15 04:28N 36°08' W 005°26'0 0.0
2018-Jul-15 03:58N 36°08' W 005°26'0 0.0
2018-Jul-15 03:22N 36°08' W 005°26'0 0.0
2018-Jul-15 02:37N 36°08' W 005°26'0 0.0
2018-Jul-15 02:28N 36°08' W 005°26'0 0.0
2018-Jul-15 01:58N 36°08' W 005°26'0 0.0
2018-Jul-15 01:28N 36°08' W 005°26'0 0.0
2018-Jul-15 00:58N 36°08' W 005°26'0 0.0
2018-Jul-15 00:28N 36°08' W 005°26'0 0.0
2018-Jul-14 23:58N 36°08' W 005°26'0 0.0
2018-Jul-14 23:28N 36°08' W 005°26'0 0.0
2018-Jul-14 22:52N 36°08' W 005°26'0 0.0
2018-Jul-14 20:22N 36°08' W 005°26'0 0.0
2018-Jul-14 19:58N 36°08' W 005°26'0 0.0
2018-Jul-14 19:28N 36°08' W 005°26'0 0.0
2018-Jul-14 18:58N 36°08' W 005°26'0 0.0
2018-Jul-14 18:28N 36°08' W 005°26'0 0.0
2018-Jul-14 17:58N 36°08' W 005°26'0 0.0
2018-Jul-14 17:22N 36°08' W 005°26'0 0.0
2018-Jul-14 16:55N 36°08' W 005°26'0 0.0
2018-Jul-14 16:29N 36°08' W 005°26'0 0.0
2018-Jul-14 15:55N 36°08' W 005°26'0 0.0
2018-Jul-14 15:29N 36°08' W 005°26'0 0.0
2018-Jul-14 14:55N 36°08' W 005°26'0 0.0
2018-Jul-14 14:29N 36°08' W 005°26'0 0.0
2018-Jul-14 13:29N 36°08' W 005°26'0 0.0
2018-Jul-14 12:59N 36°08' W 005°26'0 0.0
2018-Jul-14 09:59N 36°08' W 005°26'0 0.0
2018-Jul-14 09:29N 36°08' W 005°26'0 0.0
2018-Jul-14 08:59N 36°08' W 005°26'0 0.0
2018-Jul-14 06:23N 36°08' W 005°26'0 0.0
2018-Jul-14 05:59N 36°08' W 005°26'0 0.0
2018-Jul-14 05:29N 36°08' W 005°26'0 0.0
2018-Jul-14 04:59N 36°08' W 005°26'0 0.0
2018-Jul-14 04:29N 36°08' W 005°26'0 0.0
2018-Jul-14 03:59N 36°08' W 005°26'0 0.0
2018-Jul-14 03:29N 36°08' W 005°26'0 0.0
2018-Jul-14 02:59N 36°08' W 005°26'0 0.0
2018-Jul-14 02:29N 36°08' W 005°26'0 0.0
2018-Jul-14 01:59N 36°08' W 005°26'0 0.0
2018-Jul-14 01:14N 36°08' W 005°26'0 0.0
2018-Jul-14 00:53N 36°08' W 005°26'0 0.0
2018-Jul-14 00:29N 36°08' W 005°26'0 0.0
2018-Jul-13 23:47N 36°08' W 005°26'0 0.0
2018-Jul-13 23:29N 36°08' W 005°26'0 0.0
2018-Jul-13 18:26N 36°08' W 005°26'0 0.0
2018-Jul-13 17:59N 36°08' W 005°26'0 0.0
2018-Jul-13 17:29N 36°08' W 005°26'0 0.0
2018-Jul-13 16:44N 36°08' W 005°26'1 3.5
2018-Jul-13 16:23N 36°09' W 005°25'614.7
2018-Jul-13 16:00N 36°04' W 005°21'713.8
2018-Jul-13 15:31N 35°57' W 005°19'3 6.9
2018-Jul-13 15:00N 35°54' W 005°19'0 0.0
2018-Jul-13 13:59N 35°54' W 005°19'0 0.0
2018-Jul-13 13:29N 35°54' W 005°19'0 0.0
2018-Jul-13 12:59N 35°54' W 005°19'0 0.0
2018-Jul-13 12:29N 35°54' W 005°19'0 0.1
2018-Jul-13 12:00N 35°54' W 005°19'4 7.9
2018-Jul-13 11:31N 35°58' W 005°20'11 0.8
2018-Jul-12 21:29N 36°08' W 005°26'0 0.0
2018-Jul-12 20:59N 36°08' W 005°26'0 0.0
2018-Jul-12 20:29N 36°08' W 005°26'0 0.0
2018-Jul-12 20:01N 36°08' W 005°26'2 4.3
2018-Jul-12 19:30N 36°07' W 005°24'612.9
2018-Jul-12 19:00N 36°01' W 005°19'713.6
2018-Jul-12 18:31N 35°55' W 005°19'1 1.9
2018-Jul-12 18:00N 35°54' W 005°19'0 0.0
2018-Jul-12 17:30N 35°54' W 005°19'0 0.0
2018-Jul-12 17:00N 35°54' W 005°19'0 0.0
2018-Jul-12 16:30N 35°54' W 005°19'0 0.0
2018-Jul-12 16:00N 35°54' W 005°19'0 0.0
2018-Jul-12 15:30N 35°54' W 005°19'0 0.0
2018-Jul-12 15:00N 35°54' W 005°19'0 0.0
2018-Jul-12 14:30N 35°54' W 005°19'0 0.0
2018-Jul-12 14:00N 35°54' W 005°19'0 0.3
2018-Jul-12 13:30N 35°54' W 005°19'4 8.7
2018-Jul-12 13:00N 35°58' W 005°20'1214.2
2018-Jul-12 12:11N 36°09' W 005°25'1 5.9
2018-Jul-12 12:01N 36°08' W 005°26'0 0.0
2018-Jul-12 11:30N 36°08' W 005°26'0 0.0
2018-Jul-12 10:54N 36°08' W 005°26'0 0.0
2018-Jul-12 10:25N 36°08' W 005°26'15 1.0
2018-Jul-11 18:32N 35°54' W 005°19'0 0.0
2018-Jul-11 18:30N 35°54' W 005°19'0 0.0
2018-Jul-11 18:00N 35°54' W 005°19'0 0.0
2018-Jul-11 17:30N 35°54' W 005°19'0 0.0
2018-Jul-11 17:00N 35°54' W 005°19'0 0.0
2018-Jul-11 16:30N 35°54' W 005°19'0 0.0
2018-Jul-11 16:00N 35°54' W 005°19'0 0.0
2018-Jul-11 15:30N 35°54' W 005°19'0 0.0
2018-Jul-11 15:00N 35°54' W 005°19'0 0.8
2018-Jul-11 14:30N 35°54' W 005°19'1 2.1
2018-Jul-11 14:00N 35°55' W 005°19'0 0.1
2018-Jul-11 13:30N 35°55' W 005°19'713.6
2018-Jul-11 13:00N 36°01' W 005°21'810.1
2018-Jul-11 12:14N 36°08' W 005°26'  

Dump ship's entire track history